Time;durP1;ratioP1;P1;durP2;ratioP2;P2;SDS_P1;SDS_P2;PMS_P1;PMS_P2;Temp;Humidity;BMP_temperature;BMP_pressure;BME280_temperature;BME280_humidity;BME280_pressure;Samples;Min_cycle;Max_cycle;Signal;HPM_P1;HPM_P2
2022/10/20 00:00:44;;;;;;;;;6.00;5.50;;;;;9.61;77.12;100188.06;5115361;28;8836;-60
2022/10/20 00:03:12;;;;;;;;;7.50;7.50;;;;;9.72;76.57;100188.13;5116013;28;8836;-60
2022/10/20 00:05:40;;;;;;;;;5.00;5.00;;;;;9.82;76.29;100178.56;5115856;28;8836;-60
2022/10/20 00:08:07;;;;;;;;;4.00;4.00;;;;;9.89;76.12;100176.28;5115938;28;8832;-61
2022/10/20 00:10:35;;;;;;;;;5.50;5.50;;;;;9.96;76.02;100165.06;5114325;28;8904;-60
2022/10/20 00:13:03;;;;;;;;;5.00;4.00;;;;;10.08;75.76;100166.03;5095432;28;8891;-62
2022/10/20 00:15:31;;;;;;;;;3.00;1.50;;;;;10.21;75.81;100162.34;5094333;28;8821;-61
2022/10/20 00:17:59;;;;;;;;;6.00;4.00;;;;;10.30;76.07;100169.63;5094434;28;8838;-62
2022/10/20 00:20:27;;;;;;;;;5.00;5.00;;;;;10.38;75.51;100169.91;5094130;28;8814;-60
2022/10/20 00:22:54;;;;;;;;;4.50;4.00;;;;;10.44;75.11;100153.47;5093744;28;9577;-60
2022/10/20 00:25:22;;;;;;;;;4.50;4.25;;;;;10.50;75.53;100158.34;5094479;28;8833;-61
2022/10/20 00:27:49;;;;;;;;;6.75;6.50;;;;;10.55;74.97;100142.00;5094732;28;8834;-61
2022/10/20 00:30:17;;;;;;;;;6.00;5.00;;;;;10.56;75.18;100144.53;5095073;28;8834;-60
2022/10/20 00:32:50;;;;;;;;;8.75;8.00;;;;;10.60;75.11;100147.81;5094296;28;8865;-60
2022/10/20 00:35:18;;;;;;;;;8.00;7.00;;;;;10.60;74.99;100146.00;5095007;28;8899;-60
2022/10/20 00:37:45;;;;;;;;;5.50;5.50;;;;;10.57;75.73;100142.75;5095242;28;8910;-60
2022/10/20 00:40:13;;;;;;;;;6.75;3.50;;;;;10.47;75.42;100141.75;5094956;28;8922;-60
2022/10/20 00:42:41;;;;;;;;;6.50;6.00;;;;;10.32;76.54;100137.59;5095153;28;8839;-59
2022/10/20 00:45:08;;;;;;;;;6.25;6.25;;;;;10.14;76.02;100145.13;5095320;28;8818;-61
2022/10/20 00:47:36;;;;;;;;;6.00;6.00;;;;;10.00;76.49;100137.28;5095485;28;8834;-60
2022/10/20 00:50:03;;;;;;;;;6.00;6.00;;;;;9.83;76.92;100140.34;5095235;28;8826;-60
2022/10/20 00:52:31;;;;;;;;;7.50;6.50;;;;;9.69;77.21;100137.84;5095217;28;8863;-61
2022/10/20 00:55:00;;;;;;;;;4.50;4.50;;;;;9.58;77.23;100129.78;5095191;28;8854;-59
2022/10/20 00:57:28;;;;;;;;;5.00;4.00;;;;;9.51;77.63;100130.34;5095461;28;8838;-60
2022/10/20 00:59:55;;;;;;;;;5.00;3.00;;;;;9.45;77.92;100129.00;5095601;28;8931;-61
2022/10/20 01:02:23;;;;;;;;;1.00;1.00;;;;;9.38;78.10;100113.59;5095044;28;8822;-59
2022/10/20 01:04:51;;;;;;;;;6.00;6.00;;;;;9.41;78.00;100108.91;5094503;28;8821;-60
2022/10/20 01:07:18;;;;;;;;;6.25;6.25;;;;;9.48;78.14;100101.34;5095292;28;8834;-61
2022/10/20 01:09:46;;;;;;;;;8.50;6.75;;;;;9.48;77.85;100094.22;5098416;28;8826;-59
2022/10/20 01:12:14;;;;;;;;;10.50;8.50;;;;;9.53;77.76;100094.72;5098716;28;8825;-59
2022/10/20 01:14:41;;;;;;;;;9.25;7.00;;;;;9.63;77.71;100089.59;5098380;28;8834;-60
2022/10/20 01:17:09;;;;;;;;;4.00;3.25;;;;;9.73;77.16;100086.13;5098111;28;8916;-61
2022/10/20 01:19:37;;;;;;;;;8.00;7.50;;;;;9.83;77.33;100076.53;5098098;28;8810;-61
2022/10/20 01:22:04;;;;;;;;;5.50;4.00;;;;;9.98;77.00;100069.19;5098884;28;8834;-61
2022/10/20 01:24:32;;;;;;;;;3.75;3.75;;;;;10.13;76.58;100062.75;5098503;28;8919;-60
2022/10/20 01:27:00;;;;;;;;;9.50;6.50;;;;;10.29;76.61;100057.94;5098805;28;9492;-62
2022/10/20 01:29:27;;;;;;;;;6.00;6.00;;;;;10.43;76.48;100049.75;5098561;28;8817;-60
2022/10/20 01:31:55;;;;;;;;;11.50;10.00;;;;;10.57;75.75;100052.19;5098951;28;8822;-60
2022/10/20 01:34:23;;;;;;;;;7.75;6.50;;;;;10.68;75.39;100058.38;5098558;28;8810;-60
2022/10/20 01:36:50;;;;;;;;;6.50;6.50;;;;;10.76;75.54;100063.97;5098212;28;9556;-61
2022/10/20 01:39:18;;;;;;;;;10.00;7.00;;;;;10.81;75.60;100061.78;5098392;28;9514;-61
2022/10/20 01:41:46;;;;;;;;;9.00;8.50;;;;;10.82;75.23;100055.50;5098494;28;8826;-61
2022/10/20 01:44:14;;;;;;;;;9.50;8.00;;;;;10.86;75.31;100043.59;5098553;28;8814;-60
2022/10/20 01:46:41;;;;;;;;;6.00;6.00;;;;;10.98;75.29;100039.97;5098792;28;9634;-61
2022/10/20 01:49:09;;;;;;;;;8.00;8.00;;;;;11.05;75.40;100033.19;5098402;28;8807;-61
2022/10/20 01:51:36;;;;;;;;;3.00;3.00;;;;;11.13;75.21;100020.09;5098505;28;8875;-60
2022/10/20 01:54:04;;;;;;;;;10.75;7.00;;;;;11.16;75.15;100009.19;5098272;28;8807;-60
2022/10/20 01:56:32;;;;;;;;;5.00;4.00;;;;;11.16;75.09;100014.50;5098845;28;8841;-60
2022/10/20 01:59:00;;;;;;;;;5.25;5.00;;;;;11.12;75.50;100013.09;5097018;28;8814;-62
2022/10/20 02:01:28;;;;;;;;;9.00;7.25;;;;;11.08;75.66;100010.78;5097914;28;9434;-60
2022/10/20 02:03:55;;;;;;;;;11.00;9.50;;;;;11.08;75.28;99998.28;5098090;28;8948;-61
2022/10/20 02:06:23;;;;;;;;;6.50;6.50;;;;;11.11;75.46;99995.41;5097977;28;8910;-61
2022/10/20 02:08:51;;;;;;;;;7.50;6.50;;;;;11.15;75.19;100012.81;5097915;28;8838;-61
2022/10/20 02:11:19;;;;;;;;;7.50;6.50;;;;;11.15;75.19;100007.50;5096956;28;8811;-62
2022/10/20 02:13:46;;;;;;;;;6.25;6.25;;;;;11.15;75.21;99994.16;5097510;28;8803;-60
2022/10/20 02:16:14;;;;;;;;;7.50;7.00;;;;;11.13;75.78;99988.13;5097561;28;8830;-60
2022/10/20 02:18:42;;;;;;;;;4.00;3.00;;;;;11.16;75.43;99985.19;5097924;28;8826;-61
2022/10/20 02:21:10;;;;;;;;;7.75;7.50;;;;;11.19;75.72;99976.97;5097815;28;8814;-60
2022/10/20 02:23:38;;;;;;;;;7.00;6.00;;;;;11.21;75.90;99975.00;5097085;28;8871;-60
2022/10/20 02:26:05;;;;;;;;;6.50;6.50;;;;;11.24;75.20;99976.59;5097241;28;8799;-61
2022/10/20 02:28:33;;;;;;;;;3.50;3.25;;;;;11.33;75.10;99968.69;5097186;28;8810;-60
2022/10/20 02:31:00;;;;;;;;;7.00;6.00;;;;;11.42;75.35;99967.06;5097538;28;8826;-61
2022/10/20 02:33:28;;;;;;;;;7.00;7.00;;;;;11.48;75.38;99967.44;5097485;28;8837;-60
2022/10/20 02:35:56;;;;;;;;;3.50;3.50;;;;;11.56;75.13;99958.78;5097526;28;8822;-61
2022/10/20 02:38:24;;;;;;;;;0.00;0.00;;;;;11.58;74.83;99954.19;5097551;28;8904;-60
2022/10/20 02:40:51;;;;;;;;;6.50;6.25;;;;;11.59;75.13;99954.06;5097468;28;8814;-61
2022/10/20 02:43:19;;;;;;;;;7.50;5.50;;;;;11.62;75.06;99952.97;5097511;28;9584;-60
2022/10/20 02:45:47;;;;;;;;;6.50;5.75;;;;;11.64;75.18;99940.34;5097467;28;8831;-60
2022/10/20 02:48:15;;;;;;;;;9.00;6.00;;;;;11.67;74.81;99930.25;5096522;28;8830;-61
2022/10/20 02:50:42;;;;;;;;;6.25;5.50;;;;;11.70;74.75;99931.81;5096099;28;8898;-60
2022/10/20 02:53:10;;;;;;;;;4.00;3.00;;;;;11.71;74.52;99942.38;5097056;28;8810;-60
2022/10/20 02:55:37;;;;;;;;;8.00;8.00;;;;;11.67;74.50;99932.09;5096365;28;8826;-60
2022/10/20 02:58:05;;;;;;;;;7.00;6.25;;;;;11.63;75.07;99928.84;5097003;28;8931;-60
2022/10/20 03:00:33;;;;;;;;;7.00;6.25;;;;;11.59;74.73;99927.41;5096693;28;8806;-60
2022/10/20 03:03:00;;;;;;;;;9.00;9.00;;;;;11.56;75.07;99930.31;5097222;28;8833;-60
2022/10/20 03:05:28;;;;;;;;;6.25;6.25;;;;;11.52;75.20;99931.50;5096856;28;8887;-61
2022/10/20 03:07:56;;;;;;;;;5.00;5.00;;;;;11.45;75.94;99935.66;5096807;28;8822;-60
2022/10/20 03:10:24;;;;;;;;;6.00;6.00;;;;;11.41;75.50;99930.72;5096822;28;8822;-61
2022/10/20 03:12:51;;;;;;;;;5.00;4.00;;;;;11.38;75.46;99929.16;5096598;28;8897;-60
2022/10/20 03:15:19;;;;;;;;;5.50;5.50;;;;;11.34;76.12;99934.88;5096652;28;8899;-60
2022/10/20 03:17:46;;;;;;;;;4.00;3.50;;;;;11.32;75.97;99926.16;5096839;28;8822;-60
2022/10/20 03:20:14;;;;;;;;;6.00;6.00;;;;;11.31;75.92;99927.97;5096612;28;8823;-61
2022/10/20 03:22:42;;;;;;;;;6.25;4.50;;;;;11.34;75.67;99918.88;5097158;28;9483;-60
2022/10/20 03:25:10;;;;;;;;;9.50;6.50;;;;;11.40;75.87;99911.22;5096238;28;8863;-60
2022/10/20 03:27:38;;;;;;;;;3.00;3.00;;;;;11.46;75.68;99907.19;5096629;28;8902;-60
2022/10/20 03:30:05;;;;;;;;;8.50;7.00;;;;;11.51;75.51;99903.16;5096293;28;8929;-61
2022/10/20 03:32:33;;;;;;;;;5.00;2.75;;;;;11.60;75.31;99897.06;5096234;28;8810;-60
2022/10/20 03:35:01;;;;;;;;;6.75;6.00;;;;;11.65;75.13;99897.53;5096725;28;8814;-61
2022/10/20 03:37:29;;;;;;;;;6.00;5.00;;;;;11.70;75.32;99900.69;5096351;28;8822;-60
2022/10/20 03:39:56;;;;;;;;;4.00;4.00;;;;;11.72;75.22;99893.38;5096462;28;8817;-60
2022/10/20 03:42:24;;;;;;;;;4.00;4.00;;;;;11.77;74.89;99891.19;5096258;28;8815;-60
2022/10/20 03:44:51;;;;;;;;;6.00;4.50;;;;;11.79;74.86;99885.69;5095792;28;8842;-61
2022/10/20 03:47:19;;;;;;;;;5.00;5.00;;;;;11.82;75.07;99896.94;5096555;28;8846;-60
2022/10/20 03:49:47;;;;;;;;;4.00;2.00;;;;;11.83;74.61;99882.63;5096142;28;9486;-62
2022/10/20 03:52:14;;;;;;;;;4.00;4.00;;;;;11.87;74.90;99881.41;5096627;28;8830;-60
2022/10/20 03:54:42;;;;;;;;;5.50;5.50;;;;;11.86;75.03;99877.06;5096101;28;8845;-60
2022/10/20 03:57:10;;;;;;;;;4.25;3.50;;;;;11.85;74.95;99875.38;5096101;28;8822;-60
2022/10/20 03:59:38;;;;;;;;;3.75;3.00;;;;;11.84;74.69;99878.16;5096089;28;8803;-61
2022/10/20 04:02:05;;;;;;;;;4.50;3.75;;;;;11.81;75.59;99867.72;5096205;28;8906;-61
2022/10/20 04:04:33;;;;;;;;;4.75;4.00;;;;;11.80;74.80;99858.03;5095747;28;9476;-60
2022/10/20 04:07:00;;;;;;;;;6.00;6.00;;;;;11.81;75.25;99862.38;5095942;28;8846;-59
2022/10/20 04:09:28;;;;;;;;;6.00;4.00;;;;;11.83;75.07;99855.94;5095328;28;8826;-59
2022/10/20 04:11:57;;;;;;;;;3.75;3.00;;;;;11.82;74.57;99842.75;5095753;28;8825;-59
2022/10/20 04:14:24;;;;;;;;;6.00;5.00;;;;;11.83;74.77;99844.44;5095375;28;8919;-59
2022/10/20 04:16:52;;;;;;;;;6.00;6.00;;;;;11.85;75.42;99840.69;5095650;28;8870;-60
2022/10/20 04:19:19;;;;;;;;;2.00;2.00;;;;;11.89;74.89;99834.09;5095005;28;8822;-60
2022/10/20 04:21:47;;;;;;;;;4.00;4.00;;;;;11.95;74.55;99830.88;5095138;28;8883;-60
2022/10/20 04:24:15;;;;;;;;;6.00;6.00;;;;;12.00;74.63;99831.34;5095688;28;8826;-61
2022/10/20 04:26:43;;;;;;;;;2.00;1.00;;;;;12.06;74.26;99836.97;5096019;28;8830;-60
2022/10/20 04:29:10;;;;;;;;;1.00;0.00;;;;;12.07;74.59;99825.31;5095388;28;8818;-60
2022/10/20 04:31:38;;;;;;;;;4.00;4.00;;;;;12.09;74.74;99825.19;5095402;28;9567;-60
2022/10/20 04:34:07;;;;;;;;;3.00;3.00;;;;;12.09;74.62;99825.19;5095382;28;8849;-60
2022/10/20 04:36:35;;;;;;;;;2.50;2.50;;;;;12.09;74.56;99819.84;5095896;28;8826;-60
2022/10/20 04:39:02;;;;;;;;;5.50;3.75;;;;;12.08;74.66;99816.31;5095279;28;8919;-60
2022/10/20 04:41:30;;;;;;;;;3.25;3.25;;;;;12.05;74.74;99818.41;5094846;28;8914;-60
2022/10/20 04:43:57;;;;;;;;;4.00;4.00;;;;;12.01;74.75;99817.00;5096044;28;8819;-61
2022/10/20 04:46:25;;;;;;;;;1.00;1.00;;;;;11.98;74.41;99822.59;5097704;28;8925;-60
2022/10/20 04:48:53;;;;;;;;;3.75;3.00;;;;;11.92;74.58;99815.16;5097348;28;8907;-60
2022/10/20 04:51:21;;;;;;;;;4.00;3.50;;;;;11.88;75.21;99824.38;5097440;28;8895;-60
2022/10/20 04:53:48;;;;;;;;;2.00;1.00;;;;;11.87;74.48;99814.69;5097477;28;8903;-60
2022/10/20 04:56:18;;;;;;;;;4.00;4.00;;;;;11.92;74.73;99812.47;5097674;28;8821;-60
2022/10/20 04:58:46;;;;;;;;;4.00;4.00;;;;;11.94;74.62;99805.19;5097312;28;8814;-60
2022/10/20 05:01:14;;;;;;;;;2.00;2.00;;;;;11.97;74.92;99799.56;5111970;28;8871;-60
2022/10/20 05:03:41;;;;;;;;;3.00;3.00;;;;;12.00;74.68;99791.31;5087858;28;8826;-60
2022/10/20 05:06:09;;;;;;;;;3.50;3.00;;;;;12.07;74.53;99763.94;5097136;28;8818;-60
2022/10/20 05:08:36;;;;;;;;;5.00;4.00;;;;;12.16;73.95;99757.75;5097758;28;8838;-60
2022/10/20 05:11:04;;;;;;;;;3.00;3.00;;;;;12.25;73.61;99750.78;5097198;28;8814;-60
2022/10/20 05:13:32;;;;;;;;;0.75;0.75;;;;;12.32;73.81;99760.75;5097491;28;8830;-60
2022/10/20 05:15:59;;;;;;;;;6.50;4.00;;;;;12.37;73.16;99760.34;5096839;28;8849;-60
2022/10/20 05:18:27;;;;;;;;;4.50;3.75;;;;;12.42;73.60;99758.09;5095926;28;8906;-60
2022/10/20 05:20:55;;;;;;;;;1.00;1.00;;;;;12.45;73.39;99741.81;5096943;28;8890;-60
2022/10/20 05:23:35;;;;;;;;;4.00;3.75;;;;;12.46;73.17;99744.34;5096137;28;8930;-60
2022/10/20 05:26:03;;;;;;;;;4.00;4.00;;;;;12.47;73.76;99750.53;5094535;28;8910;-60
2022/10/20 05:28:31;;;;;;;;;5.00;4.00;;;;;12.47;73.66;99734.50;5095660;28;8830;-60
2022/10/20 05:30:59;;;;;;;;;3.75;3.75;;;;;12.47;73.14;99735.34;5094997;28;8826;-62
2022/10/20 05:33:28;;;;;;;;;3.00;3.00;;;;;12.48;73.57;99720.16;5095365;28;8958;-60
2022/10/20 05:35:55;;;;;;;;;4.00;4.00;;;;;12.49;73.18;99724.53;5095113;28;8898;-60
2022/10/20 05:38:23;;;;;;;;;6.50;4.50;;;;;12.53;72.94;99716.09;5095150;28;9495;-61
2022/10/20 05:40:51;;;;;;;;;5.50;5.00;;;;;12.56;72.92;99713.16;5094967;28;8830;-60
2022/10/20 05:43:19;;;;;;;;;5.00;3.00;;;;;12.58;73.66;99711.19;5056789;28;600018;-60
2022/10/20 05:45:46;;;;;;;;;4.00;4.00;;;;;12.62;73.60;99706.41;5095137;28;8926;-61
2022/10/20 05:48:14;;;;;;;;;4.00;4.00;;;;;12.62;73.05;99698.38;5095658;28;8822;-60
2022/10/20 05:50:42;;;;;;;;;5.50;5.00;;;;;12.65;73.63;99716.78;5096237;28;8822;-60
2022/10/20 05:53:09;;;;;;;;;2.50;2.50;;;;;12.67;72.99;99707.66;5096072;28;8898;-60
2022/10/20 05:55:37;;;;;;;;;6.00;5.00;;;;;12.68;73.19;99701.31;5095877;28;8932;-60
2022/10/20 05:58:04;;;;;;;;;3.00;2.75;;;;;12.67;72.97;99706.81;5095928;28;8834;-61
2022/10/20 06:00:40;;;;;;;;;3.75;3.25;;;;;12.64;73.01;99709.78;5095102;28;8830;-60
2022/10/20 06:03:08;;;;;;;;;6.00;6.00;;;;;12.62;73.44;99706.41;5096119;28;8838;-60
2022/10/20 06:05:36;;;;;;;;;4.00;4.00;;;;;12.63;73.35;99713.44;5095765;28;8853;-60
2022/10/20 06:08:03;;;;;;;;;6.00;6.00;;;;;12.62;74.15;99709.91;5094957;28;9491;-60
2022/10/20 06:10:31;;;;;;;;;7.25;6.00;;;;;12.66;73.24;99713.13;5095710;28;8837;-60
2022/10/20 06:12:59;;;;;;;;;4.00;4.00;;;;;12.66;73.30;99713.13;5094463;28;9854;-60
2022/10/20 06:15:27;;;;;;;;;5.00;5.00;;;;;12.68;73.09;99705.84;5094028;28;8830;-61
2022/10/20 06:17:54;;;;;;;;;5.50;5.50;;;;;12.80;73.09;99694.88;5094135;28;8860;-62
2022/10/20 06:20:22;;;;;;;;;8.00;6.50;;;;;12.86;72.80;99696.97;5093960;28;8803;-60
2022/10/20 06:22:50;;;;;;;;;6.75;6.75;;;;;12.91;72.89;99694.69;5094787;28;8845;-59
2022/10/20 06:25:18;;;;;;;;;3.50;2.75;;;;;12.97;72.85;99690.63;5094787;28;8810;-60
2022/10/20 06:27:46;;;;;;;;;6.00;6.00;;;;;13.06;72.74;99700.50;5095405;28;8829;-60
2022/10/20 06:30:13;;;;;;;;;3.25;3.00;;;;;13.12;72.44;99700.75;5095657;28;8826;-60
2022/10/20 06:32:41;;;;;;;;;4.50;4.50;;;;;13.18;72.78;99693.97;5095175;28;9597;-60
2022/10/20 06:35:09;;;;;;;;;5.50;4.50;;;;;13.23;72.38;99705.91;5095683;28;8895;-60
2022/10/20 06:37:37;;;;;;;;;6.00;6.00;;;;;13.27;72.27;99703.78;5095822;28;8956;-61
2022/10/20 06:40:04;;;;;;;;;6.50;5.00;;;;;13.27;72.63;99685.06;5095179;28;8810;-59
2022/10/20 06:42:32;;;;;;;;;6.00;6.00;;;;;13.27;72.59;99703.78;5095723;28;8818;-60
2022/10/20 06:45:01;;;;;;;;;8.00;6.75;;;;;13.28;72.62;99710.84;5095636;28;8926;-60
2022/10/20 06:47:29;;;;;;;;;5.00;3.50;;;;;13.32;72.12;99709.56;5095788;28;8848;-60
2022/10/20 06:49:56;;;;;;;;;6.00;6.00;;;;;13.34;72.03;99699.56;5095749;28;8830;-60
2022/10/20 06:52:24;;;;;;;;;2.75;2.00;;;;;13.36;72.17;99700.28;5095719;28;8838;-60
2022/10/20 06:54:52;;;;;;;;;7.00;6.00;;;;;13.42;72.67;99707.69;5096164;28;8825;-59
2022/10/20 06:57:19;;;;;;;;;6.25;6.00;;;;;13.49;72.04;99717.69;5096584;28;8830;-60
2022/10/20 06:59:47;;;;;;;;;1.00;0.00;;;;;13.58;72.17;99714.13;5096177;28;8833;-59
2022/10/20 07:02:16;;;;;;;;;5.00;3.50;;;;;13.69;71.69;99715.78;5095811;28;8822;-61
2022/10/20 07:04:43;;;;;;;;;6.00;6.00;;;;;13.77;71.67;99707.84;5095344;28;8874;-60
2022/10/20 07:07:12;;;;;;;;;6.00;5.50;;;;;13.87;71.30;99704.16;5094750;28;8837;-60
2022/10/20 07:09:39;;;;;;;;;3.75;3.25;;;;;13.97;71.41;99702.25;5095276;28;8842;-60
2022/10/20 07:12:07;;;;;;;;;4.00;4.00;;;;;14.03;71.18;99703.50;5094703;28;8830;-60
2022/10/20 07:14:36;;;;;;;;;8.50;7.50;;;;;14.08;70.96;99701.19;5095389;28;8834;-60
2022/10/20 07:17:04;;;;;;;;;8.00;7.00;;;;;14.14;71.09;99701.47;5093205;28;9701;-60
2022/10/20 07:19:32;;;;;;;;;4.00;3.50;;;;;14.19;70.96;99709.06;5093175;28;8880;-60
2022/10/20 07:21:59;;;;;;;;;10.50;8.00;;;;;14.25;70.79;99706.63;5092907;28;8822;-60
2022/10/20 07:24:28;;;;;;;;;9.75;9.25;;;;;14.29;70.93;99710.72;5092882;28;8833;-60
2022/10/20 07:26:56;;;;;;;;;3.00;3.00;;;;;14.33;70.99;99706.72;5091766;28;8826;-61
2022/10/20 07:29:24;;;;;;;;;7.00;7.00;;;;;14.37;71.02;99701.91;5093386;28;8849;-60
2022/10/20 07:31:52;;;;;;;;;6.00;5.00;;;;;14.43;70.65;99702.13;5092431;28;8846;-60
2022/10/20 07:34:22;;;;;;;;;7.00;6.00;;;;;14.48;71.05;99707.06;5092997;28;8830;-60
2022/10/20 07:36:53;;;;;;;;;4.00;3.25;;;;;14.54;70.59;99704.59;5092245;28;8829;-60
2022/10/20 07:39:21;;;;;;;;;7.00;7.00;;;;;14.59;70.70;99712.16;5092009;28;8838;-59
2022/10/20 07:41:49;;;;;;;;;3.00;1.00;;;;;14.65;70.23;99711.56;5092286;28;8834;-61
2022/10/20 07:44:18;;;;;;;;;7.75;7.25;;;;;14.71;70.29;99693.03;5092286;28;8838;-60
2022/10/20 07:46:45;;;;;;;;;7.00;7.00;;;;;14.79;69.65;99694.94;5092803;28;8845;-60
2022/10/20 07:49:13;;;;;;;;;8.00;7.00;;;;;14.83;70.45;99688.25;5092057;28;8833;-60
2022/10/20 07:52:01;;;;;;;;;7.00;7.00;;;;;14.85;70.22;99692.47;5093051;28;8850;-61
2022/10/20 07:54:29;;;;;;;;;5.50;5.50;;;;;14.89;70.16;99696.53;5093409;28;8985;-60
2022/10/20 07:56:57;;;;;;;;;7.00;7.00;;;;;14.94;70.13;99685.34;5092575;28;8912;-60
2022/10/20 07:59:25;;;;;;;;;7.00;7.00;;;;;14.96;70.00;99700.25;5093164;28;8842;-61
2022/10/20 08:01:52;;;;;;;;;6.75;6.00;;;;;15.02;69.72;99709.53;5093076;28;8866;-60
2022/10/20 08:04:23;;;;;;;;;7.00;7.00;;;;;15.06;69.80;99698.34;5093541;28;8838;-60
2022/10/20 08:06:51;;;;;;;;;7.00;7.00;;;;;15.13;69.98;99698.56;5093723;28;8838;-61
2022/10/20 08:09:19;;;;;;;;;7.00;6.25;;;;;15.21;69.35;99698.59;5094348;28;8829;-61
2022/10/20 08:11:47;;;;;;;;;8.00;7.00;;;;;15.32;69.43;99693.84;5093998;28;8826;-60
2022/10/20 08:14:21;;;;;;;;;6.00;6.00;;;;;15.44;68.81;99689.91;5093994;28;8835;-61
2022/10/20 08:16:49;;;;;;;;;6.00;4.00;;;;;15.55;68.98;99691.50;5093431;28;8923;-60
2022/10/20 08:19:22;;;;;;;;;7.00;6.20;;;;;15.67;69.04;99684.81;5093277;28;8926;-60
2022/10/20 08:22:18;;;;;;;;;4.80;4.80;;;;;15.86;68.47;99677.34;5045013;28;8880;-60
2022/10/20 08:24:45;;;;;;;;;6.00;4.00;;;;;15.98;68.81;99664.47;5092286;28;8860;-61
2022/10/20 08:27:14;;;;;;;;;5.20;4.00;;;;;16.15;68.02;99648.25;5092083;28;8830;-61
2022/10/20 08:29:42;;;;;;;;;8.20;7.00;;;;;16.32;68.00;99634.69;5091503;28;8814;-60
2022/10/20 08:32:26;;;;;;;;;4.00;3.40;;;;;16.49;67.24;99636.41;5092474;28;8838;-61
2022/10/20 08:34:54;;;;;;;;;7.00;6.00;;;;;16.57;67.67;99633.72;5093333;28;9504;-60
2022/10/20 08:37:22;;;;;;;;;6.00;6.00;;;;;16.61;67.70;99628.84;5093295;28;8826;-60
2022/10/20 08:39:50;;;;;;;;;13.00;8.60;;;;;16.63;67.45;99616.09;5094418;28;8830;-60
2022/10/20 08:42:18;;;;;;;;;7.00;7.00;;;;;16.64;67.30;99621.28;5094519;28;8836;-61
2022/10/20 08:44:46;;;;;;;;;6.80;6.80;;;;;16.67;67.81;99629.03;5093805;28;8858;-62
2022/10/20 08:47:14;;;;;;;;;6.20;6.20;;;;;16.68;67.52;99629.88;5093812;28;8862;-60
2022/10/20 08:49:41;;;;;;;;;3.00;1.00;;;;;16.68;67.29;99630.72;5093810;28;8919;-61
2022/10/20 08:52:09;;;;;;;;;5.40;5.20;;;;;16.70;67.53;99634.06;5093598;28;8818;-61
2022/10/20 08:54:38;;;;;;;;;6.00;4.80;;;;;16.74;67.25;99645.34;5093157;28;8826;-60
2022/10/20 08:57:06;;;;;;;;;7.00;6.20;;;;;16.76;67.78;99632.53;5092463;28;8845;-61
2022/10/20 08:59:33;;;;;;;;;7.80;7.80;;;;;16.79;67.49;99626.84;5090512;28;8826;-60
2022/10/20 09:02:04;;;;;;;;;6.00;6.00;;;;;16.84;67.29;99629.84;5092571;28;8821;-60
2022/10/20 09:04:32;;;;;;;;;9.00;7.40;;;;;16.86;67.10;99627.84;5092604;28;9777;-60
2022/10/20 09:07:00;;;;;;;;;6.00;6.00;;;;;16.88;67.67;99629.38;5092844;28;8826;-60
2022/10/20 09:09:28;;;;;;;;;6.00;5.20;;;;;16.92;67.32;99625.31;5093154;28;8838;-60
2022/10/20 09:11:55;;;;;;;;;6.00;5.20;;;;;16.96;67.37;99631.19;5093025;28;8852;-61
2022/10/20 09:14:23;;;;;;;;;7.40;7.40;;;;;17.00;67.13;99636.06;5092365;28;8838;-60
2022/10/20 09:16:51;;;;;;;;;9.00;6.20;;;;;17.04;67.09;99632.03;5091492;28;8849;-59
2022/10/20 09:19:27;;;;;;;;;7.60;7.20;;;;;17.10;67.06;99638.59;5091232;28;8833;-61
2022/10/20 09:21:54;;;;;;;;;9.20;8.60;;;;;17.14;66.83;99632.69;5091430;28;9860;-60
2022/10/20 09:24:23;;;;;;;;;9.00;9.00;;;;;17.17;67.09;99626.94;5091559;28;8856;-61
2022/10/20 09:26:50;;;;;;;;;6.20;6.00;;;;;17.21;66.80;99625.59;5091470;28;8842;-60
2022/10/20 09:29:26;;;;;;;;;6.00;5.60;;;;;17.25;66.57;99620.72;5092768;28;9717;-61
2022/10/20 09:31:54;;;;;;;;;6.20;6.00;;;;;17.30;66.78;99618.38;5095444;28;8852;-60
2022/10/20 09:34:22;;;;;;;;;8.60;8.60;;;;;17.32;66.67;99614.47;5095590;28;8826;-61
2022/10/20 09:36:51;;;;;;;;;6.20;6.20;;;;;17.35;66.72;99622.22;5096194;28;8821;-60
2022/10/20 09:39:20;;;;;;;;;6.60;4.00;;;;;17.39;66.78;99622.75;5096636;28;8829;-60
2022/10/20 09:41:47;;;;;;;;;6.40;6.00;;;;;17.43;66.55;99637.53;5096011;28;8841;-60
2022/10/20 09:44:15;;;;;;;;;7.00;6.00;;;;;17.47;66.88;99644.25;5096522;28;8841;-61
2022/10/20 09:46:43;;;;;;;;;7.00;7.00;;;;;17.50;66.62;99642.06;5096617;28;8846;-60
2022/10/20 09:49:11;;;;;;;;;9.80;9.80;;;;;17.52;66.97;99625.72;5096851;28;8834;-60
2022/10/20 09:51:39;;;;;;;;;8.20;7.00;;;;;17.52;66.64;99631.09;5096389;28;8830;-60
2022/10/20 09:54:07;;;;;;;;;7.00;6.20;;;;;17.50;66.78;99643.91;5095987;28;8861;-60
2022/10/20 09:56:34;;;;;;;;;7.80;7.00;;;;;17.46;66.92;99642.56;5095583;28;8822;-61
2022/10/20 09:59:02;;;;;;;;;7.80;7.00;;;;;17.40;66.70;99636.00;5095118;28;8840;-60
2022/10/20 10:01:31;;;;;;;;;6.80;6.80;;;;;17.36;67.15;99629.31;5095317;28;8848;-61
2022/10/20 10:04:00;;;;;;;;;9.80;9.00;;;;;17.34;67.65;99623.22;5095272;28;8841;-60
2022/10/20 10:06:28;;;;;;;;;9.00;6.40;;;;;17.34;66.99;99633.16;5095503;28;8849;-60
2022/10/20 10:08:56;;;;;;;;;7.00;6.00;;;;;17.32;67.78;99630.63;5095053;28;8830;-60
2022/10/20 10:11:24;;;;;;;;;7.80;7.00;;;;;17.31;67.24;99628.94;5095281;28;8960;-61
2022/10/20 10:13:52;;;;;;;;;9.60;8.40;;;;;17.33;67.58;99631.47;5094999;28;9511;-60
2022/10/20 10:16:20;;;;;;;;;9.00;7.40;;;;;17.28;67.05;99623.91;5095457;28;8858;-60
2022/10/20 10:18:48;;;;;;;;;7.40;7.00;;;;;17.26;67.89;99619.72;5094165;28;8870;-60
2022/10/20 10:21:16;;;;;;;;;7.20;7.20;;;;;17.22;67.51;99608.44;5094150;28;8841;-60
2022/10/20 10:23:44;;;;;;;;;7.80;7.20;;;;;17.22;67.41;99619.22;5095141;28;9574;-61
2022/10/20 10:26:13;;;;;;;;;9.40;7.80;;;;;17.21;67.69;99633.69;5094224;28;8865;-61
2022/10/20 10:28:41;;;;;;;;;9.40;9.40;;;;;17.25;67.74;99628.78;5094447;28;8875;-63
2022/10/20 10:31:09;;;;;;;;;9.00;8.60;;;;;17.24;67.87;99629.81;5094640;28;8829;-60
2022/10/20 10:33:37;;;;;;;;;10.40;10.00;;;;;17.23;67.47;99626.28;5094080;28;8840;-60
2022/10/20 10:36:04;;;;;;;;;9.60;9.00;;;;;17.19;67.81;99619.56;5073529;28;8836;-60
2022/10/20 10:38:32;;;;;;;;;6.80;6.40;;;;;17.18;67.38;99620.59;5073270;28;8852;-60
2022/10/20 10:41:01;;;;;;;;;7.20;6.80;;;;;17.16;67.45;99617.19;5073061;28;9497;-60
2022/10/20 10:43:29;;;;;;;;;9.40;9.00;;;;;17.14;67.53;99603.09;5074055;28;8859;-60
2022/10/20 10:45:57;;;;;;;;;3.80;3.00;;;;;17.12;67.71;99601.56;5072926;28;8866;-60
2022/10/20 10:48:25;;;;;;;;;12.40;12.40;;;;;17.10;68.17;99611.69;5072864;28;8864;-60
2022/10/20 10:50:53;;;;;;;;;7.80;7.80;;;;;17.09;67.74;99615.38;5073541;28;8832;-61
2022/10/20 10:53:22;;;;;;;;;9.00;8.60;;;;;17.07;67.64;99615.53;5073221;28;8960;-60
2022/10/20 10:55:49;;;;;;;;;7.80;6.20;;;;;17.07;67.65;99612.84;5072740;28;8851;-61
2022/10/20 10:58:17;;;;;;;;;9.60;9.20;;;;;17.03;67.88;99618.75;5072175;28;8820;-60
2022/10/20 11:00:45;;;;;;;;;9.40;9.40;;;;;17.00;68.28;99625.31;5071921;28;8836;-60
2022/10/20 11:03:18;;;;;;;;;12.00;11.60;;;;;16.96;68.01;99610.53;5072587;28;8966;-61
2022/10/20 11:05:47;;;;;;;;;10.00;10.00;;;;;16.95;67.70;99610.69;5089741;28;9840;-60
2022/10/20 11:08:15;;;;;;;;;10.00;9.80;;;;;16.94;68.19;99615.22;5092603;28;9054;-60
2022/10/20 11:10:43;;;;;;;;;9.00;8.60;;;;;16.95;67.90;99618.75;5093610;28;8922;-60
2022/10/20 11:13:11;;;;;;;;;6.00;5.20;;;;;16.96;67.73;99613.22;5094367;28;8833;-60
2022/10/20 11:15:39;;;;;;;;;11.00;10.40;;;;;16.99;67.44;99617.41;5094554;28;8864;-61
2022/10/20 11:18:07;;;;;;;;;7.80;7.00;;;;;16.98;67.78;99616.56;5093717;28;8841;-60
2022/10/20 11:20:35;;;;;;;;;12.60;12.00;;;;;16.98;67.83;99605.81;5093058;28;8830;-60
2022/10/20 11:23:03;;;;;;;;;9.80;9.00;;;;;16.99;67.46;99607.50;5093946;28;8822;-59
2022/10/20 11:25:31;;;;;;;;;7.40;7.00;;;;;17.00;67.62;99600.28;5093679;28;9638;-59
2022/10/20 11:27:59;;;;;;;;;10.40;9.20;;;;;16.99;67.65;99598.56;5092465;28;8948;-59
2022/10/20 11:30:28;;;;;;;;;14.20;13.80;;;;;16.95;67.32;99598.06;5092651;28;9574;-60
2022/10/20 11:32:55;;;;;;;;;9.80;9.00;;;;;16.92;67.61;99576.91;5093918;28;8834;-62
2022/10/20 11:35:23;;;;;;;;;11.20;9.40;;;;;16.92;67.65;99584.97;5094022;28;8818;-61
2022/10/20 11:37:51;;;;;;;;;9.20;8.20;;;;;16.94;67.96;99574.88;5093683;28;8834;-61
2022/10/20 11:40:19;;;;;;;;;9.20;9.00;;;;;16.97;67.59;99565.63;5093239;28;8914;-61
2022/10/20 11:42:48;;;;;;;;;10.20;10.00;;;;;16.97;67.64;99561.09;5092971;28;9529;-59